Time;durP1;ratioP1;P1;durP2;ratioP2;P2;SDS_P1;SDS_P2;PMS_P1;PMS_P2;Temp;Humidity;BMP_temperature;BMP_pressure;BME280_temperature;BME280_humidity;BME280_pressure;Samples;Min_cycle;Max_cycle;Signal;HPM_P1;HPM_P2
2022/01/03 00:00:51;;;;;;;3.05;2.20;;;11.30;89.60;;;;;;4948404;28;20039;-70
2022/01/03 00:03:18;;;;;;;3.75;2.58;;;11.40;89.50;;;;;;4951507;28;20043;-70
2022/01/03 00:05:44;;;;;;;7.82;2.50;;;11.40;88.70;;;;;;4957842;28;20073;-70
2022/01/03 00:08:10;;;;;;;4.53;2.22;;;11.40;89.10;;;;;;4955257;28;20027;-70
2022/01/03 00:10:37;;;;;;;4.72;2.20;;;11.40;89.50;;;;;;4950429;28;20041;-70
2022/01/03 00:13:05;;;;;;;7.93;2.45;;;11.40;89.90;;;;;;4955922;28;20046;-69
2022/01/03 00:15:31;;;;;;;5.03;2.20;;;11.40;89.60;;;;;;4947864;28;20058;-69
2022/01/03 00:17:57;;;;;;;4.88;2.33;;;11.40;89.50;;;;;;4953872;28;20025;-69
2022/01/03 00:20:23;;;;;;;4.47;2.13;;;11.30;90.00;;;;;;4957497;28;20039;-69
2022/01/03 00:22:55;;;;;;;4.68;2.22;;;11.30;89.50;;;;;;4955728;28;20489;-69
2022/01/03 00:25:22;;;;;;;5.68;2.65;;;11.40;89.50;;;;;;4950271;28;20721;-69
2022/01/03 00:27:57;;;;;;;4.10;1.80;;;11.40;89.20;;;;;;4954813;28;20100;-69
2022/01/03 00:30:25;;;;;;;3.83;1.83;;;11.50;89.70;;;;;;4946783;28;20031;-69
2022/01/03 00:32:52;;;;;;;4.97;2.20;;;11.50;90.00;;;;;;4955394;28;20027;-69
2022/01/03 00:35:21;;;;;;;9.07;2.30;;;11.40;90.40;;;;;;4958020;28;20489;-70
2022/01/03 00:37:47;;;;;;;6.20;2.17;;;11.40;91.10;;;;;;4960126;28;20101;-69
2022/01/03 00:40:17;;;;;;;5.95;2.40;;;11.40;91.50;;;;;;4953251;28;20041;-69
2022/01/03 00:42:43;;;;;;;3.50;1.75;;;11.30;91.60;;;;;;4953008;28;20030;-69
2022/01/03 00:45:10;;;;;;;3.78;1.83;;;11.30;92.00;;;;;;4948535;28;20035;-69
2022/01/03 00:47:36;;;;;;;5.50;1.95;;;11.30;92.10;;;;;;4957050;28;20045;-69
2022/01/03 00:50:09;;;;;;;5.40;2.10;;;11.20;92.20;;;;;;4952852;28;20050;-69
2022/01/03 00:52:37;;;;;;;2.78;1.63;;;11.20;92.50;;;;;;4944502;28;20063;-69
2022/01/03 00:55:05;;;;;;;3.25;1.70;;;11.20;92.70;;;;;;4949925;28;20043;-68
2022/01/03 00:57:53;;;;;;;4.22;1.90;;;11.10;92.70;;;;;;4950485;28;20030;-68
2022/01/03 01:00:19;;;;;;;5.05;1.90;;;11.10;93.00;;;;;;4954142;28;20435;-68
2022/01/03 01:03:15;;;;;;;7.07;3.03;;;11.10;93.10;;;;;;4961028;28;20056;-68
2022/01/03 01:05:50;;;;;;;3.75;2.08;;;11.10;93.00;;;;;;4942427;28;20031;-68
2022/01/03 01:08:26;;;;;;;5.63;2.10;;;11.00;93.30;;;;;;4952059;28;20129;-68
2022/01/03 01:10:54;;;;;;;;;;;10.90;93.50;;;;;;4971996;28;20116;-69
2022/01/03 01:13:21;;;;;;;1.77;1.50;;;10.90;93.50;;;;;;4952688;28;20037;-68
2022/01/03 01:15:48;;;;;;;3.50;1.90;;;10.90;93.60;;;;;;4959739;28;20027;-68
2022/01/03 01:18:14;;;;;;;3.55;1.77;;;10.90;93.60;;;;;;4957714;28;20031;-68
2022/01/03 01:20:40;;;;;;;4.63;2.05;;;10.90;93.60;;;;;;4950707;28;20329;-68
2022/01/03 01:23:10;;;;;;;6.70;2.03;;;10.80;93.60;;;;;;4957788;28;20094;-69
2022/01/03 01:28:09;;;;;;;3.33;2.00;;;10.80;93.70;;;;;;4962005;28;20899;-68
2022/01/03 01:30:35;;;;;;;5.57;1.63;;;10.80;93.80;;;;;;4965129;28;20082;-68
2022/01/03 01:33:12;;;;;;;4.50;2.00;;;10.80;93.80;;;;;;4945505;28;20055;-69
2022/01/03 01:35:57;;;;;;;2.78;2.08;;;10.80;93.90;;;;;;4951619;28;20033;-69
2022/01/03 01:38:35;;;;;;;6.82;2.22;;;10.80;93.80;;;;;;4950208;28;20027;-69
2022/01/03 01:41:06;;;;;;;3.15;1.65;;;10.90;93.60;;;;;;4956382;28;20177;-69
2022/01/03 01:43:43;;;;;;;4.80;1.35;;;10.90;93.60;;;;;;4959694;28;20566;-69
2022/01/03 01:46:14;;;;;;;2.50;1.60;;;10.80;93.80;;;;;;4945913;28;20573;-69
2022/01/03 01:48:44;;;;;;;7.30;1.92;;;10.70;93.90;;;;;;4951182;28;20059;-69
2022/01/03 01:51:12;;;;;;;4.40;1.35;;;10.60;94.10;;;;;;4954831;28;20097;-69
2022/01/03 01:53:45;;;;;;;1.20;1.10;;;10.50;94.40;;;;;;4955952;28;20065;-69
2022/01/03 01:56:17;;;;;;;2.17;1.27;;;10.50;94.30;;;;;;4961003;28;20039;-69
2022/01/03 01:59:20;;;;;;;1.75;1.20;;;10.60;94.10;;;;;;4962631;28;20041;-68
2022/01/03 02:02:06;;;;;;;2.58;1.42;;;10.60;94.20;;;;;;4951596;28;20093;-69
2022/01/03 02:04:46;;;;;;;5.10;1.40;;;10.50;94.20;;;;;;4953983;28;20545;-69
2022/01/03 02:07:27;;;;;;;2.78;1.17;;;10.50;94.50;;;;;;4954686;28;20059;-69
2022/01/03 02:10:14;;;;;;;10.23;1.80;;;10.60;94.30;;;;;;4961008;28;20118;-69
2022/01/03 02:12:49;;;;;;;3.28;1.15;;;10.60;94.10;;;;;;4961682;28;20109;-69
2022/01/03 02:15:20;;;;;;;4.10;1.50;;;10.50;94.10;;;;;;4961713;28;20128;-69
2022/01/03 02:17:49;;;;;;;3.25;0.90;;;10.50;94.30;;;;;;4951162;28;20549;-69
2022/01/03 02:20:20;;;;;;;2.60;1.05;;;10.60;94.10;;;;;;4955969;28;20723;-69
2022/01/03 02:22:47;;;;;;;2.13;1.05;;;10.70;93.70;;;;;;4972977;28;20049;-69
2022/01/03 02:25:19;;;;;;;1.90;1.00;;;10.70;93.60;;;;;;4957096;28;20031;-69
2022/01/03 02:27:47;;;;;;;1.10;1.00;;;10.60;93.70;;;;;;4957527;28;20026;-69
2022/01/03 02:30:17;;;;;;;1.15;0.73;;;10.60;93.70;;;;;;4938434;28;20046;-69
2022/01/03 02:32:43;;;;;;;2.20;0.90;;;10.70;93.40;;;;;;4955937;28;20129;-69
2022/01/03 02:35:09;;;;;;;1.40;0.88;;;10.60;93.40;;;;;;4955701;28;20038;-69
2022/01/03 02:37:38;;;;;;;1.20;0.93;;;10.60;93.40;;;;;;4957521;28;20030;-68
2022/01/03 02:40:05;;;;;;;1.00;0.57;;;10.50;93.00;;;;;;4962270;28;20460;-69
2022/01/03 02:42:31;;;;;;;2.13;0.65;;;10.50;93.30;;;;;;4957375;28;20023;-69
2022/01/03 02:45:14;;;;;;;1.00;0.65;;;10.50;93.00;;;;;;4970252;28;20066;-69
2022/01/03 02:47:42;;;;;;;1.90;0.50;;;10.50;92.80;;;;;;4952778;28;20030;-69
2022/01/03 02:50:11;;;;;;;1.25;0.70;;;10.60;92.80;;;;;;4954890;28;20069;-69
2022/01/03 02:52:37;;;;;;;3.50;0.70;;;10.50;92.60;;;;;;4959483;28;20038;-68
2022/01/03 02:55:05;;;;;;;0.30;0.30;;;10.40;92.70;;;;;;4954041;28;20105;-69
2022/01/03 02:57:36;;;;;;;4.30;0.95;;;10.40;92.80;;;;;;4956327;28;20109;-69
2022/01/03 03:00:06;;;;;;;0.85;0.50;;;10.50;92.40;;;;;;4949464;28;20039;-69
2022/01/03 03:02:32;;;;;;;1.38;0.40;;;10.50;92.80;;;;;;4961983;28;20636;-69
2022/01/03 03:05:00;;;;;;;1.30;0.60;;;10.60;92.30;;;;;;4969452;28;20039;-68
2022/01/03 03:07:29;;;;;;;2.90;0.88;;;10.60;92.00;;;;;;4959294;28;20069;-69
2022/01/03 03:09:55;;;;;;;1.45;0.50;;;10.60;92.00;;;;;;4961932;28;20023;-69
2022/01/03 03:12:23;;;;;;;1.45;0.60;;;10.50;92.30;;;;;;4938216;28;20030;-69
2022/01/03 03:14:50;;;;;;;1.90;0.52;;;10.60;92.30;;;;;;4949780;28;20082;-69
2022/01/03 03:17:19;;;;;;;2.13;0.60;;;10.70;92.20;;;;;;4954418;28;20026;-69
2022/01/03 03:20:15;;;;;;;2.83;0.68;;;10.60;91.80;;;;;;4962472;28;20069;-68
2022/01/03 03:22:42;;;;;;;3.30;0.82;;;10.70;92.10;;;;;;4920129;28;20035;-69
2022/01/03 03:25:17;;;;;;;3.13;0.57;;;10.70;92.10;;;;;;4954770;28;20042;-69
2022/01/03 03:27:51;;;;;;;0.60;0.60;;;10.70;92.30;;;;;;4949665;28;20089;-69
2022/01/03 03:30:24;;;;;;;2.55;0.70;;;10.80;92.30;;;;;;4952237;28;20039;-69
2022/01/03 03:32:54;;;;;;;1.92;0.70;;;10.80;92.50;;;;;;4954110;28;20110;-69
2022/01/03 03:35:21;;;;;;;1.15;1.00;;;10.80;92.60;;;;;;4961448;28;20746;-69
2022/01/03 03:37:47;;;;;;;1.65;0.88;;;10.70;92.60;;;;;;4945879;28;20118;-68
2022/01/03 03:40:13;;;;;;;2.08;0.90;;;10.60;93.20;;;;;;4954412;28;20037;-69
2022/01/03 03:42:41;;;;;;;2.10;1.15;;;10.50;93.70;;;;;;4949544;28;20025;-69
2022/01/03 03:45:08;;;;;;;3.40;1.20;;;10.50;93.60;;;;;;4956230;28;20027;-68
2022/01/03 03:47:35;;;;;;;1.65;0.90;;;10.50;93.70;;;;;;4958891;28;20090;-69
2022/01/03 03:50:02;;;;;;;3.00;0.98;;;10.60;93.80;;;;;;4939507;28;20595;-69
2022/01/03 03:52:28;;;;;;;5.80;1.02;;;10.60;93.60;;;;;;4956035;28;20035;-68
2022/01/03 03:54:54;;;;;;;3.40;0.80;;;10.60;93.50;;;;;;4936985;28;20023;-69
2022/01/03 03:57:22;;;;;;;3.35;1.20;;;10.50;93.70;;;;;;4952702;28;20063;-68
2022/01/03 03:59:47;;;;;;;2.17;0.95;;;10.50;94.10;;;;;;4955934;28;20034;-69
2022/01/03 04:02:13;;;;;;;1.85;1.00;;;10.50;94.30;;;;;;4958527;28;20045;-69
2022/01/03 04:04:39;;;;;;;6.07;1.15;;;10.50;93.90;;;;;;4954140;28;20804;-68
2022/01/03 04:07:05;;;;;;;3.15;0.90;;;10.60;94.00;;;;;;4955166;28;20085;-68
2022/01/03 04:09:31;;;;;;;4.63;0.60;;;10.60;93.70;;;;;;4952470;28;20122;-68
2022/01/03 04:11:57;;;;;;;2.35;0.50;;;10.60;93.50;;;;;;4947503;28;20577;-69
2022/01/03 04:14:23;;;;;;;1.75;0.50;;;10.60;93.20;;;;;;4954400;28;20039;-69
2022/01/03 04:16:49;;;;;;;0.65;0.25;;;10.60;93.20;;;;;;4960416;28;20398;-69
2022/01/03 04:19:15;;;;;;;2.15;0.50;;;10.50;93.10;;;;;;4951069;28;20035;-69
2022/01/03 04:21:41;;;;;;;1.75;0.40;;;10.50;93.20;;;;;;4951389;28;20062;-69
2022/01/03 04:24:10;;;;;;;0.38;0.10;;;10.50;93.00;;;;;;4949244;28;20027;-69
2022/01/03 04:26:37;;;;;;;0.20;0.20;;;10.50;92.60;;;;;;4951234;28;20658;-69
2022/01/03 04:29:04;;;;;;;0.35;0.20;;;10.30;92.80;;;;;;4955203;28;20137;-69
2022/01/03 04:31:31;;;;;;;0.13;0.13;;;10.30;92.70;;;;;;4956260;28;20135;-69
2022/01/03 04:33:57;;;;;;;0.60;0.08;;;10.30;92.60;;;;;;4945150;28;20033;-69
2022/01/03 04:36:24;;;;;;;1.90;0.10;;;10.20;92.60;;;;;;4955453;28;20076;-69
2022/01/03 04:38:50;;;;;;;1.98;0.10;;;10.10;92.60;;;;;;4948724;28;20059;-69
2022/01/03 04:41:16;;;;;;;0.10;0.10;;;10.10;92.20;;;;;;4950891;28;20026;-69
2022/01/03 04:43:43;;;;;;;0.03;0.03;;;10.00;92.50;;;;;;4972435;28;20033;-69
2022/01/03 04:46:10;;;;;;;0.32;0.03;;;10.10;92.50;;;;;;4943257;28;20039;-69
2022/01/03 04:48:37;;;;;;;2.10;0.57;;;10.10;92.50;;;;;;4953002;28;20037;-69
2022/01/03 04:51:04;;;;;;;2.72;0.40;;;10.10;92.60;;;;;;4957744;28;20292;-69
2022/01/03 04:53:30;;;;;;;0.43;0.00;;;10.00;92.70;;;;;;4948814;28;20039;-69
2022/01/03 04:55:56;;;;;;;0.63;0.38;;;10.10;92.90;;;;;;4954052;28;20028;-69
2022/01/03 04:58:22;;;;;;;2.45;0.28;;;10.20;92.90;;;;;;4959486;28;20188;-69
2022/01/03 05:00:49;;;;;;;2.00;0.20;;;10.10;93.00;;;;;;4954911;28;20034;-69
2022/01/03 05:03:15;;;;;;;0.85;0.30;;;10.10;93.20;;;;;;4954808;28;20034;-68
2022/01/03 05:05:41;;;;;;;0.98;0.30;;;10.10;93.30;;;;;;4959318;28;20030;-67
2022/01/03 05:08:08;;;;;;;0.70;0.30;;;10.10;93.30;;;;;;4954040;28;20035;-67
2022/01/03 05:10:34;;;;;;;1.65;0.20;;;10.10;93.40;;;;;;4956213;28;20044;-67
2022/01/03 05:13:00;;;;;;;1.38;0.20;;;10.10;93.50;;;;;;4958812;28;20035;-67
2022/01/03 05:15:26;;;;;;;1.35;0.30;;;10.10;93.50;;;;;;4952515;28;20031;-67
2022/01/03 05:17:52;;;;;;;0.55;0.20;;;10.20;93.50;;;;;;4944188;28;20019;-67
2022/01/03 05:20:18;;;;;;;2.05;0.30;;;10.20;93.50;;;;;;4951618;28;20122;-67
2022/01/03 05:22:45;;;;;;;2.83;0.40;;;10.20;93.60;;;;;;4961489;28;20031;-67
2022/01/03 05:25:12;;;;;;;0.20;0.20;;;10.20;93.50;;;;;;4956897;28;20038;-67
2022/01/03 05:27:40;;;;;;;0.40;0.20;;;10.20;93.50;;;;;;4960293;28;20023;-67
2022/01/03 05:30:06;;;;;;;1.67;0.20;;;10.10;93.60;;;;;;4949416;28;20106;-67
2022/01/03 05:32:32;;;;;;;4.57;0.88;;;10.10;93.80;;;;;;4953785;28;20034;-67
2022/01/03 05:34:59;;;;;;;4.88;0.45;;;10.10;93.70;;;;;;4952974;28;20047;-67
2022/01/03 05:37:25;;;;;;;0.80;0.40;;;10.20;93.80;;;;;;4951444;28;20497;-67
2022/01/03 05:39:52;;;;;;;2.97;0.70;;;10.20;93.60;;;;;;4955849;28;20027;-67
2022/01/03 05:42:18;;;;;;;3.63;0.60;;;10.20;93.40;;;;;;4955785;28;20035;-67
2022/01/03 05:44:44;;;;;;;5.32;0.57;;;10.20;93.50;;;;;;4940568;28;20085;-67
2022/01/03 05:47:10;;;;;;;1.80;0.50;;;10.20;93.50;;;;;;4953879;28;20133;-68
2022/01/03 05:49:36;;;;;;;5.82;0.80;;;10.30;93.40;;;;;;4948486;28;20233;-67
2022/01/03 05:52:03;;;;;;;7.47;0.90;;;10.30;93.60;;;;;;4954124;28;20031;-67
2022/01/03 05:54:29;;;;;;;4.07;0.55;;;10.30;93.50;;;;;;4959073;28;20410;-67
2022/01/03 05:56:55;;;;;;;4.05;1.08;;;10.30;93.30;;;;;;4959133;28;20027;-67
2022/01/03 05:59:20;;;;;;;1.58;0.68;;;10.40;93.20;;;;;;4955534;28;20051;-67
2022/01/03 06:01:47;;;;;;;3.15;1.08;;;10.40;93.00;;;;;;4956084;28;20133;-67
2022/01/03 06:04:35;;;;;;;5.53;0.90;;;10.40;93.20;;;;;;4950366;28;20037;-67
2022/01/03 06:07:02;;;;;;;5.95;0.70;;;10.50;93.00;;;;;;4957808;28;20069;-67
2022/01/03 06:09:33;;;;;;;6.40;1.10;;;10.50;92.90;;;;;;4960902;28;20035;-67
2022/01/03 06:12:01;;;;;;;5.22;1.30;;;10.50;92.90;;;;;;4962991;28;20670;-67
2022/01/03 06:14:28;;;;;;;6.82;1.27;;;10.50;92.60;;;;;;4938289;28;20057;-68
2022/01/03 06:16:54;;;;;;;2.60;0.90;;;10.50;92.70;;;;;;4955692;28;20534;-68
2022/01/03 06:19:21;;;;;;;3.30;1.20;;;10.50;92.70;;;;;;4955268;28;20031;-67
2022/01/03 06:21:47;;;;;;;2.92;1.23;;;10.50;92.70;;;;;;4961028;28;20031;-67
2022/01/03 06:24:17;;;;;;;7.20;1.05;;;10.50;92.60;;;;;;4943326;28;20046;-67
2022/01/03 06:26:45;;;;;;;6.15;1.00;;;10.50;92.60;;;;;;4948855;28;20039;-67
2022/01/03 06:29:13;;;;;;;6.22;1.20;;;10.50;92.50;;;;;;4956969;28;20043;-67
2022/01/03 06:31:41;;;;;;;3.35;0.80;;;10.50;92.40;;;;;;4954767;28;20728;-67
2022/01/03 06:34:07;;;;;;;8.32;1.25;;;10.50;92.40;;;;;;4959881;28;20042;-67
2022/01/03 06:36:33;;;;;;;3.47;0.93;;;10.50;92.30;;;;;;4960460;28;20035;-67
2022/01/03 06:39:05;;;;;;;6.03;1.13;;;10.60;92.20;;;;;;4963793;28;20042;-67
2022/01/03 06:41:31;;;;;;;4.57;1.00;;;10.60;92.10;;;;;;4963360;28;20065;-67
2022/01/03 06:43:57;;;;;;;5.57;1.00;;;10.60;92.00;;;;;;4956994;28;20122;-67
2022/01/03 06:46:23;;;;;;;6.50;1.00;;;10.60;91.90;;;;;;4959747;28;20097;-67
2022/01/03 06:48:49;;;;;;;2.85;1.00;;;10.60;91.30;;;;;;4944302;28;20025;-67
2022/01/03 06:51:16;;;;;;;4.18;1.17;;;10.60;91.50;;;;;;4957847;28;20038;-67
2022/01/03 06:53:43;;;;;;;4.15;0.70;;;10.50;91.60;;;;;;4960757;28;20086;-67
2022/01/03 06:56:10;;;;;;;3.90;1.00;;;10.50;91.90;;;;;;4953278;28;20070;-67
2022/01/03 06:58:37;;;;;;;3.00;1.02;;;10.50;92.00;;;;;;4962698;28;20410;-67
2022/01/03 07:01:03;;;;;;;5.80;1.38;;;10.50;91.80;;;;;;4955035;28;20046;-67
2022/01/03 07:03:30;;;;;;;3.97;1.17;;;10.50;92.10;;;;;;4959387;28;20041;-67
2022/01/03 07:05:55;;;;;;;7.20;1.17;;;10.50;92.30;;;;;;4958599;28;20035;-67
2022/01/03 07:08:21;;;;;;;7.45;1.15;;;10.50;92.50;;;;;;4956994;28;20533;-67
2022/01/03 07:10:48;;;;;;;9.25;1.33;;;10.50;92.50;;;;;;4957936;28;20046;-67
2022/01/03 07:13:14;;;;;;;2.30;0.70;;;10.50;92.70;;;;;;4957434;28;20133;-67
2022/01/03 07:21:08;;;;;;;6.50;1.20;;;10.60;92.80;;;;;;4957894;28;20126;-67
2022/01/03 07:23:34;;;;;;;3.75;1.13;;;10.60;92.80;;;;;;4958494;28;20109;-67
2022/01/03 07:26:00;;;;;;;4.68;1.17;;;10.70;92.90;;;;;;4962121;28;20189;-67
2022/01/03 07:28:26;;;;;;;4.45;1.00;;;10.70;92.90;;;;;;4953642;28;20047;-67
2022/01/03 07:30:52;;;;;;;6.10;1.00;;;10.60;93.00;;;;;;4960518;28;20031;-67
2022/01/03 07:33:18;;;;;;;4.47;0.95;;;10.60;93.10;;;;;;4959021;28;20034;-67
2022/01/03 07:35:43;;;;;;;10.88;1.58;;;10.60;93.20;;;;;;4960475;28;20510;-67
2022/01/03 07:38:09;;;;;;;6.80;1.10;;;10.60;93.20;;;;;;4956878;28;20035;-67
2022/01/03 07:40:35;;;;;;;4.10;1.15;;;10.60;93.40;;;;;;4962783;28;20038;-67
2022/01/03 07:43:01;;;;;;;7.22;1.50;;;10.50;93.40;;;;;;4950036;28;20126;-67
2022/01/03 07:45:27;;;;;;;6.28;1.60;;;10.50;93.50;;;;;;4961462;28;20031;-67
2022/01/03 07:47:53;;;;;;;6.20;1.17;;;10.50;93.50;;;;;;4961366;28;20031;-67
2022/01/03 07:50:19;;;;;;;4.30;1.20;;;10.50;93.50;;;;;;4961520;28;20380;-67
2022/01/03 07:52:45;;;;;;;5.85;1.48;;;10.50;93.60;;;;;;4956459;28;20810;-67
2022/01/03 07:55:13;;;;;;;3.22;0.95;;;10.50;93.60;;;;;;4956638;28;20035;-67
2022/01/03 07:57:39;;;;;;;7.93;1.30;;;10.50;93.50;;;;;;4951240;28;20065;-67
2022/01/03 08:00:08;;;;;;;10.68;1.58;;;10.50;93.40;;;;;;4958115;28;20063;-67
2022/01/03 08:02:40;;;;;;;9.98;2.17;;;10.50;93.40;;;;;;4961740;28;20243;-67
2022/01/03 08:05:08;;;;;;;8.77;1.30;;;10.60;92.90;;;;;;4958009;28;20510;-67
2022/01/03 08:07:35;;;;;;;7.07;1.50;;;10.50;92.70;;;;;;4958806;28;20042;-68
2022/01/03 08:10:04;;;;;;;10.35;1.33;;;10.50;92.20;;;;;;4961978;28;20569;-67
2022/01/03 08:12:29;;;;;;;10.85;1.67;;;10.60;91.90;;;;;;4953031;28;20077;-67
2022/01/03 08:14:55;;;;;;;6.80;1.40;;;10.60;92.00;;;;;;4958573;28;20062;-67
2022/01/03 08:17:20;;;;;;;11.30;1.40;;;10.60;91.70;;;;;;4959172;28;20090;-68
2022/01/03 08:19:46;;;;;;;9.20;1.50;;;10.60;91.50;;;;;;4959976;28;20066;-68
2022/01/03 08:22:12;;;;;;;11.18;1.35;;;10.50;91.30;;;;;;4958442;28;20039;-67
2022/01/03 08:24:38;;;;;;;10.88;1.42;;;10.50;91.30;;;;;;4955810;28;20544;-68
2022/01/03 08:27:04;;;;;;;6.30;1.20;;;10.60;91.30;;;;;;4954557;28;20467;-69
2022/01/03 08:29:29;;;;;;;7.63;2.67;;;10.60;91.00;;;;;;4957777;28;20034;-68
2022/01/03 08:31:55;;;;;;;14.25;2.45;;;10.70;91.00;;;;;;4958741;28;20030;-68
2022/01/03 08:34:21;;;;;;;10.15;1.90;;;10.70;91.20;;;;;;4960232;28;20046;-68
2022/01/03 08:36:47;;;;;;;8.43;1.60;;;10.70;91.20;;;;;;4956038;28;20038;-69
2022/01/03 08:39:12;;;;;;;8.23;1.40;;;10.70;91.40;;;;;;4956323;28;20058;-69
2022/01/03 08:41:38;;;;;;;10.30;2.05;;;10.80;91.50;;;;;;4950914;28;20583;-68
2022/01/03 08:44:05;;;;;;;6.10;1.60;;;10.90;91.30;;;;;;4961089;28;20054;-69
2022/01/03 08:46:31;;;;;;;6.45;1.27;;;11.00;91.40;;;;;;4958123;28;20566;-68
2022/01/03 08:48:56;;;;;;;6.57;1.27;;;11.10;90.80;;;;;;4955394;28;20075;-69
2022/01/03 08:51:22;;;;;;;7.18;1.80;;;11.30;90.60;;;;;;4953510;28;20444;-68
2022/01/03 08:53:48;;;;;;;10.57;2.92;;;11.30;90.40;;;;;;4956003;28;20091;-69
2022/01/03 08:56:14;;;;;;;11.68;1.55;;;11.30;89.50;;;;;;4953869;28;20137;-69
2022/01/03 08:58:40;;;;;;;9.68;1.60;;;11.30;89.50;;;;;;4957423;28;20177;-70
2022/01/03 09:01:05;;;;;;;7.88;1.65;;;11.30;88.40;;;;;;4953189;28;20548;-68
2022/01/03 09:03:31;;;;;;;7.03;1.98;;;11.30;89.00;;;;;;4955233;28;20451;-69
2022/01/03 09:05:57;;;;;;;11.40;2.00;;;11.40;88.80;;;;;;4956290;28;20078;-69
2022/01/03 09:08:24;;;;;;;10.05;1.67;;;11.30;88.40;;;;;;4952990;28;20132;-69
2022/01/03 09:10:50;;;;;;;10.57;1.83;;;11.30;89.10;;;;;;4960148;28;20430;-68
2022/01/03 09:13:17;;;;;;;10.60;1.83;;;11.30;90.30;;;;;;4959257;28;20034;-69
2022/01/03 09:15:46;;;;;;;7.10;1.40;;;11.10;90.80;;;;;;4958429;28;20077;-69
2022/01/03 09:18:18;;;;;;;8.82;1.75;;;11.10;91.10;;;;;;4961211;28;20043;-69
2022/01/03 09:20:44;;;;;;;12.35;1.58;;;11.00;91.30;;;;;;4960895;28;20069;-69
2022/01/03 09:23:16;;;;;;;9.63;1.63;;;11.00;91.60;;;;;;4957198;28;20039;-70
2022/01/03 09:30:55;;;;;;;7.97;1.87;;;10.80;92.30;;;;;;4961958;28;20041;-69
2022/01/03 09:33:21;;;;;;;15.93;2.42;;;10.70;92.60;;;;;;4964602;28;20085;-70
2022/01/03 09:35:47;;;;;;;13.40;1.70;;;10.80;92.90;;;;;;4961409;28;20066;-69
2022/01/03 09:38:13;;;;;;;11.10;2.15;;;10.90;93.00;;;;;;4961892;28;20031;-70
2022/01/03 09:40:40;;;;;;;9.90;2.05;;;11.00;92.90;;;;;;4966585;28;20031;-69
2022/01/03 09:43:09;;;;;;;9.93;2.22;;;11.10;92.70;;;;;;4964726;28;20589;-70
2022/01/03 09:45:37;;;;;;;14.90;2.65;;;11.20;92.50;;;;;;4966031;28;20047;-70
2022/01/03 09:48:04;;;;;;;13.85;3.50;;;11.30;92.40;;;;;;4959574;28;20030;-70
2022/01/03 09:50:34;;;;;;;15.57;3.00;;;11.30;92.40;;;;;;4960444;28;20054;-71
2022/01/03 09:53:02;;;;;;;9.15;2.63;;;11.40;92.00;;;;;;4967193;28;20129;-70
2022/01/03 09:55:29;;;;;;;15.45;3.08;;;11.40;92.00;;;;;;4963110;28;20058;-70
2022/01/03 09:57:55;;;;;;;9.38;2.17;;;11.50;91.80;;;;;;4959979;28;20035;-70
2022/01/03 10:00:25;;;;;;;13.07;2.30;;;11.40;91.60;;;;;;4960364;28;20507;-70
2022/01/03 10:02:53;;;;;;;10.18;2.50;;;11.40;91.10;;;;;;4956100;28;20038;-69
2022/01/03 10:05:20;;;;;;;8.95;2.15;;;11.30;91.10;;;;;;4959751;28;20038;-70
2022/01/03 10:07:46;;;;;;;9.65;2.60;;;11.40;91.20;;;;;;4962354;28;20027;-70
2022/01/03 10:10:13;;;;;;;14.10;2.53;;;11.40;91.00;;;;;;4961228;28;20062;-70
2022/01/03 10:12:39;;;;;;;14.18;4.93;;;11.50;90.40;;;;;;4959994;28;20035;-71
2022/01/03 10:15:08;;;;;;;24.42;9.60;;;11.90;90.40;;;;;;4957594;28;20138;-72
2022/01/03 10:17:36;;;;;;;13.85;6.53;;;12.40;87.90;;;;;;4956221;28;20400;-71
2022/01/03 10:20:03;;;;;;;13.73;6.53;;;13.00;85.50;;;;;;4962461;28;20082;-72
2022/01/03 10:22:31;;;;;;;11.45;3.78;;;14.00;82.90;;;;;;4957995;28;20041;-71
2022/01/03 10:24:59;;;;;;;13.32;4.18;;;15.00;76.90;;;;;;4955777;28;20208;-72
2022/01/03 10:27:52;;;;;;;16.90;6.88;;;15.50;72.50;;;;;;4956235;28;20054;-71
2022/01/03 10:30:36;;;;;;;21.00;8.27;;;15.40;72.20;;;;;;4961086;28;20081;-71
2022/01/03 10:33:03;;;;;;;16.70;6.25;;;15.00;72.60;;;;;;4963036;28;20434;-69
2022/01/03 10:35:45;;;;;;;19.50;9.63;;;14.80;73.90;;;;;;4962393;28;20106;-69
2022/01/03 10:38:29;;;;;;;21.02;9.38;;;14.50;75.10;;;;;;4961020;28;20047;-71
2022/01/03 10:41:14;;;;;;;19.77;10.20;;;14.10;74.70;;;;;;4960343;28;20102;-71
2022/01/03 10:43:41;;;;;;;13.30;4.00;;;13.70;77.50;;;;;;4963924;28;20562;-71
2022/01/03 10:46:25;;;;;;;15.63;4.05;;;13.40;78.90;;;;;;4958417;28;20061;-71
2022/01/03 10:49:13;;;;;;;10.07;4.15;;;13.10;79.50;;;;;;4958633;28;20114;-70
2022/01/03 10:51:40;;;;;;;11.77;3.60;;;12.90;79.60;;;;;;4959756;28;20585;-70
2022/01/03 10:54:12;;;;;;;9.05;2.42;;;12.70;79.70;;;;;;4956356;28;20046;-70
2022/01/03 10:56:40;;;;;;;13.82;2.70;;;12.60;80.80;;;;;;4956307;28;20071;-70
2022/01/03 10:59:24;;;;;;;14.38;2.60;;;12.50;81.50;;;;;;4961778;28;20031;-69
2022/01/03 11:02:01;;;;;;;7.75;2.30;;;12.40;82.30;;;;;;4962307;28;20086;-69
2022/01/03 11:04:47;;;;;;;12.32;2.97;;;12.30;82.70;;;;;;4960517;28;20102;-71
2022/01/03 11:13:15;;;;;;;8.98;2.63;;;12.10;83.00;;;;;;4957066;28;20127;-71
2022/01/03 11:15:55;;;;;;;9.20;2.15;;;12.10;83.60;;;;;;4959052;28;20023;-70
2022/01/03 11:18:24;;;;;;;9.40;2.72;;;12.10;83.20;;;;;;4961496;28;20744;-70
2022/01/03 11:21:18;;;;;;;9.13;2.42;;;12.10;83.00;;;;;;4960947;28;20693;-69
2022/01/03 11:24:04;;;;;;;11.73;4.25;;;12.20;83.50;;;;;;4948042;28;20482;-70
2022/01/03 11:26:33;;;;;;;12.57;2.60;;;12.30;83.60;;;;;;4952140;28;20574;-70
2022/01/03 11:29:03;;;;;;;17.70;2.90;;;12.30;82.40;;;;;;4960469;28;20043;-70
2022/01/03 11:31:33;;;;;;;20.77;3.03;;;12.40;82.50;;;;;;4963151;28;20030;-70
2022/01/03 11:34:00;;;;;;;12.18;2.85;;;12.50;81.60;;;;;;4958019;28;20066;-70
2022/01/03 11:36:27;;;;;;;12.75;2.72;;;12.50;81.70;;;;;;4955538;28;20037;-70
2022/01/03 11:38:56;;;;;;;11.05;2.13;;;12.40;80.40;;;;;;4954915;28;20031;-70
2022/01/03 11:41:22;;;;;;;17.35;2.90;;;12.40;80.60;;;;;;4956937;28;20043;-71
2022/01/03 11:43:49;;;;;;;9.63;2.72;;;12.30;82.00;;;;;;4961447;28;20037;-71
2022/01/03 11:46:15;;;;;;;10.43;1.95;;;12.30;81.20;;;;;;4956604;28;20043;-72
2022/01/03 11:48:40;;;;;;;11.82;3.20;;;12.30;80.90;;;;;;4953725;28;20023;-72
2022/01/03 11:51:10;;;;;;;11.82;2.15;;;12.30;81.50;;;;;;4955696;28;20122;-71
2022/01/03 11:53:42;;;;;;;10.48;2.38;;;12.30;81.40;;;;;;4957556;28;20027;-72
2022/01/03 11:56:16;;;;;;;11.00;2.20;;;12.30;80.30;;;;;;4958740;28;20070;-72
2022/01/03 11:59:04;;;;;;;10.23;2.80;;;12.30;80.80;;;;;;4962378;28;20051;-70
2022/01/03 12:04:25;;;;;;;9.07;2.40;;;12.20;81.20;;;;;;4956600;28;20041;-71
2022/01/03 12:07:12;;;;;;;11.95;2.13;;;12.30;80.20;;;;;;4949114;28;20037;-71
2022/01/03 12:09:39;;;;;;;;;;;12.20;80.10;;;;;;4959390;28;20035;-72
2022/01/03 12:12:06;;;;;;;6.10;2.30;;;12.20;79.90;;;;;;4959636;28;20561;-71
2022/01/03 12:14:44;;;;;;;7.25;2.05;;;12.20;80.70;;;;;;4957610;28;20652;-73
2022/01/03 12:17:14;;;;;;;7.35;2.83;;;12.30;81.00;;;;;;4959195;28;20058;-73
2022/01/03 12:19:42;;;;;;;11.18;3.65;;;12.40;78.80;;;;;;4953283;28;20031;-70
2022/01/03 12:22:22;;;;;;;12.15;2.92;;;12.30;79.40;;;;;;4940097;28;20841;-71
2022/01/03 12:24:51;;;;;;;6.70;2.20;;;12.30;79.00;;;;;;4961469;28;20784;-70
2022/01/03 12:27:20;;;;;;;14.50;2.83;;;12.40;79.60;;;;;;4960103;28;20115;-72
2022/01/03 12:29:55;;;;;;;10.90;2.13;;;12.30;79.00;;;;;;4961332;28;20022;-71
2022/01/03 12:32:31;;;;;;;8.73;2.28;;;12.40;79.60;;;;;;4958999;28;20037;-72
2022/01/03 12:35:06;;;;;;;11.45;2.95;;;12.40;78.30;;;;;;4951914;28;20043;-70
2022/01/03 12:37:34;;;;;;;10.07;2.47;;;12.50;78.90;;;;;;4957471;28;20026;-70
2022/01/03 12:40:06;;;;;;;9.50;1.90;;;12.60;78.50;;;;;;4956409;28;20066;-70
2022/01/03 12:42:53;;;;;;;8.45;2.28;;;12.60;79.00;;;;;;4955268;28;20035;-70
2022/01/03 12:45:32;;;;;;;17.75;2.47;;;12.60;77.60;;;;;;4959393;28;20043;-70
2022/01/03 12:48:10;;;;;;;12.05;2.00;;;12.60;76.90;;;;;;4956315;28;20035;-71
2022/01/03 12:50:40;;;;;;;13.02;2.15;;;12.50;76.60;;;;;;4952213;28;20444;-71
2022/01/03 12:53:07;;;;;;;10.70;2.22;;;12.40;78.40;;;;;;4956594;28;20736;-72
2022/01/03 12:55:43;;;;;;;10.30;2.75;;;12.40;77.90;;;;;;4957603;28;20396;-71
2022/01/03 12:58:17;;;;;;;14.27;2.67;;;12.40;76.90;;;;;;4955854;28;20038;-71
2022/01/03 13:00:55;;;;;;;6.25;1.90;;;12.40;77.80;;;;;;4959399;28;20073;-71
2022/01/03 13:03:25;;;;;;;15.77;5.15;;;12.30;76.50;;;;;;4952754;28;20046;-72
2022/01/03 13:06:13;;;;;;;13.60;4.50;;;12.30;77.70;;;;;;4958665;28;20035;-70
2022/01/03 13:08:48;;;;;;;13.43;4.68;;;12.30;77.70;;;;;;4949698;28;20787;-71
2022/01/03 13:11:17;;;;;;;16.90;4.72;;;12.20;76.80;;;;;;4962165;28;20050;-70
2022/01/03 13:13:45;;;;;;;15.25;5.47;;;12.30;77.90;;;;;;4962569;28;20019;-71
2022/01/03 13:16:20;;;;;;;14.32;4.50;;;12.40;76.40;;;;;;4957109;28;20107;-69
2022/01/03 13:18:51;;;;;;;20.10;7.50;;;12.60;76.20;;;;;;4962757;28;20062;-71